sensor_id;sensor_type;location;lat;lon;timestamp;temperature;humidity
37560;DHT22;23398;50.928;7.084;2023-07-02T00:01:46;20.80;81.80
37560;DHT22;23398;50.928;7.084;2023-07-02T00:04:12;20.70;82.20
37560;DHT22;23398;50.928;7.084;2023-07-02T00:06:47;20.70;82.30
37560;DHT22;23398;50.928;7.084;2023-07-02T00:09:14;20.70;82.30
37560;DHT22;23398;50.928;7.084;2023-07-02T00:11:42;20.70;82.00
37560;DHT22;23398;50.928;7.084;2023-07-02T00:14:09;20.70;82.70
37560;DHT22;23398;50.928;7.084;2023-07-02T00:16:39;20.70;82.70
37560;DHT22;23398;50.928;7.084;2023-07-02T00:19:06;20.70;82.70
37560;DHT22;23398;50.928;7.084;2023-07-02T00:21:32;20.80;82.50
37560;DHT22;23398;50.928;7.084;2023-07-02T00:23:58;20.70;82.40
37560;DHT22;23398;50.928;7.084;2023-07-02T00:26:25;20.70;82.30
37560;DHT22;23398;50.928;7.084;2023-07-02T00:28:53;20.70;82.40
37560;DHT22;23398;50.928;7.084;2023-07-02T00:31:18;20.70;82.00
37560;DHT22;23398;50.928;7.084;2023-07-02T00:33:44;20.60;82.00
37560;DHT22;23398;50.928;7.084;2023-07-02T00:36:10;20.60;81.80
37560;DHT22;23398;50.928;7.084;2023-07-02T00:38:41;20.60;81.80
37560;DHT22;23398;50.928;7.084;2023-07-02T00:41:08;20.60;81.50
37560;DHT22;23398;50.928;7.084;2023-07-02T00:43:33;20.60;81.70
37560;DHT22;23398;50.928;7.084;2023-07-02T00:45:59;20.60;81.80
37560;DHT22;23398;50.928;7.084;2023-07-02T00:48:25;20.50;81.70
37560;DHT22;23398;50.928;7.084;2023-07-02T00:50:51;20.50;81.70
37560;DHT22;23398;50.928;7.084;2023-07-02T00:53:16;20.50;81.70
37560;DHT22;23398;50.928;7.084;2023-07-02T00:55:42;20.60;82.10
37560;DHT22;23398;50.928;7.084;2023-07-02T00:58:08;20.50;82.20
37560;DHT22;23398;50.928;7.084;2023-07-02T01:00:35;20.50;81.80
37560;DHT22;23398;50.928;7.084;2023-07-02T01:03:01;20.40;82.20
37560;DHT22;23398;50.928;7.084;2023-07-02T01:05:29;20.40;82.00
37560;DHT22;23398;50.928;7.084;2023-07-02T01:08:09;20.40;82.10
37560;DHT22;23398;50.928;7.084;2023-07-02T01:10:37;20.40;82.60
37560;DHT22;23398;50.928;7.084;2023-07-02T01:13:19;20.40;82.50
37560;DHT22;23398;50.928;7.084;2023-07-02T01:15:45;20.30;82.30
37560;DHT22;23398;50.928;7.084;2023-07-02T01:18:13;20.30;81.90
37560;DHT22;23398;50.928;7.084;2023-07-02T01:20:40;20.30;81.70
37560;DHT22;23398;50.928;7.084;2023-07-02T01:23:06;20.30;81.10
37560;DHT22;23398;50.928;7.084;2023-07-02T01:25:33;20.30;80.70
37560;DHT22;23398;50.928;7.084;2023-07-02T01:28:02;20.30;80.50
37560;DHT22;23398;50.928;7.084;2023-07-02T01:30:27;20.30;80.50
37560;DHT22;23398;50.928;7.084;2023-07-02T01:32:53;20.20;80.30
37560;DHT22;23398;50.928;7.084;2023-07-02T01:35:19;20.20;80.10
37560;DHT22;23398;50.928;7.084;2023-07-02T01:37:44;20.20;79.90
37560;DHT22;23398;50.928;7.084;2023-07-02T01:40:10;20.20;80.40
37560;DHT22;23398;50.928;7.084;2023-07-02T01:42:36;20.20;79.50
37560;DHT22;23398;50.928;7.084;2023-07-02T01:45:01;20.20;79.40
37560;DHT22;23398;50.928;7.084;2023-07-02T01:47:27;20.20;79.40
37560;DHT22;23398;50.928;7.084;2023-07-02T01:49:53;20.20;78.90
37560;DHT22;23398;50.928;7.084;2023-07-02T01:52:18;20.20;78.50
37560;DHT22;23398;50.928;7.084;2023-07-02T01:54:45;20.10;78.20
37560;DHT22;23398;50.928;7.084;2023-07-02T01:57:11;20.10;78.00
37560;DHT22;23398;50.928;7.084;2023-07-02T01:59:36;20.10;78.10
37560;DHT22;23398;50.928;7.084;2023-07-02T02:02:02;20.10;77.80
37560;DHT22;23398;50.928;7.084;2023-07-02T02:04:28;20.10;77.60
37560;DHT22;23398;50.928;7.084;2023-07-02T02:06:53;20.10;77.30
37560;DHT22;23398;50.928;7.084;2023-07-02T02:09:19;20.10;77.10
37560;DHT22;23398;50.928;7.084;2023-07-02T02:11:48;20.10;77.00
37560;DHT22;23398;50.928;7.084;2023-07-02T02:14:14;20.10;76.90
37560;DHT22;23398;50.928;7.084;2023-07-02T02:16:40;20.10;76.90
37560;DHT22;23398;50.928;7.084;2023-07-02T02:19:05;20.10;77.00
37560;DHT22;23398;50.928;7.084;2023-07-02T02:21:31;20.00;76.70
37560;DHT22;23398;50.928;7.084;2023-07-02T02:23:57;20.00;76.60
37560;DHT22;23398;50.928;7.084;2023-07-02T02:26:23;20.00;76.60
37560;DHT22;23398;50.928;7.084;2023-07-02T02:28:51;20.00;76.70
37560;DHT22;23398;50.928;7.084;2023-07-02T02:31:16;20.00;76.40
37560;DHT22;23398;50.928;7.084;2023-07-02T02:33:42;20.00;76.30
37560;DHT22;23398;50.928;7.084;2023-07-02T02:36:08;20.00;76.20
37560;DHT22;23398;50.928;7.084;2023-07-02T02:38:34;20.00;76.30
37560;DHT22;23398;50.928;7.084;2023-07-02T02:41:00;20.00;76.30
37560;DHT22;23398;50.928;7.084;2023-07-02T02:43:27;20.00;76.10
37560;DHT22;23398;50.928;7.084;2023-07-02T02:45:52;20.00;76.20
37560;DHT22;23398;50.928;7.084;2023-07-02T02:48:18;20.00;76.00
37560;DHT22;23398;50.928;7.084;2023-07-02T02:50:43;20.00;75.90
37560;DHT22;23398;50.928;7.084;2023-07-02T02:53:09;20.00;76.00
37560;DHT22;23398;50.928;7.084;2023-07-02T02:55:38;19.90;75.70
37560;DHT22;23398;50.928;7.084;2023-07-02T02:58:04;19.90;75.60
37560;DHT22;23398;50.928;7.084;2023-07-02T03:00:30;20.00;75.50
37560;DHT22;23398;50.928;7.084;2023-07-02T03:02:55;19.90;75.70
37560;DHT22;23398;50.928;7.084;2023-07-02T03:05:22;19.90;75.50
37560;DHT22;23398;50.928;7.084;2023-07-02T03:07:48;19.90;75.40
37560;DHT22;23398;50.928;7.084;2023-07-02T03:10:13;19.90;75.30
37560;DHT22;23398;50.928;7.084;2023-07-02T03:12:39;19.90;75.40
37560;DHT22;23398;50.928;7.084;2023-07-02T03:15:05;19.80;75.30
37560;DHT22;23398;50.928;7.084;2023-07-02T03:17:30;19.80;75.70
37560;DHT22;23398;50.928;7.084;2023-07-02T03:19:56;19.80;75.80
37560;DHT22;23398;50.928;7.084;2023-07-02T03:22:22;19.80;75.40
37560;DHT22;23398;50.928;7.084;2023-07-02T03:24:47;19.70;75.40
37560;DHT22;23398;50.928;7.084;2023-07-02T03:27:13;19.70;75.40
37560;DHT22;23398;50.928;7.084;2023-07-02T03:29:38;19.60;75.20
37560;DHT22;23398;50.928;7.084;2023-07-02T03:32:04;19.60;75.30
37560;DHT22;23398;50.928;7.084;2023-07-02T03:34:30;19.60;75.60
37560;DHT22;23398;50.928;7.084;2023-07-02T03:36:56;19.60;76.10
37560;DHT22;23398;50.928;7.084;2023-07-02T03:39:21;19.60;76.40
37560;DHT22;23398;50.928;7.084;2023-07-02T03:41:47;19.60;76.70
37560;DHT22;23398;50.928;7.084;2023-07-02T03:44:13;19.60;76.40
37560;DHT22;23398;50.928;7.084;2023-07-02T03:46:38;19.60;76.60
37560;DHT22;23398;50.928;7.084;2023-07-02T03:49:04;19.60;76.80
37560;DHT22;23398;50.928;7.084;2023-07-02T03:51:32;19.60;76.50
37560;DHT22;23398;50.928;7.084;2023-07-02T03:54:01;19.70;76.60
37560;DHT22;23398;50.928;7.084;2023-07-02T03:56:26;19.70;76.50
37560;DHT22;23398;50.928;7.084;2023-07-02T03:58:53;19.80;76.40
37560;DHT22;23398;50.928;7.084;2023-07-02T04:01:18;19.80;76.60
37560;DHT22;23398;50.928;7.084;2023-07-02T04:03:51;19.80;76.40
37560;DHT22;23398;50.928;7.084;2023-07-02T04:06:17;19.90;76.30
37560;DHT22;23398;50.928;7.084;2023-07-02T04:08:43;19.90;76.30
37560;DHT22;23398;50.928;7.084;2023-07-02T04:11:10;19.90;76.20
37560;DHT22;23398;50.928;7.084;2023-07-02T04:13:36;20.00;76.40
37560;DHT22;23398;50.928;7.084;2023-07-02T04:16:02;20.10;76.40
37560;DHT22;23398;50.928;7.084;2023-07-02T04:18:27;20.10;76.50
37560;DHT22;23398;50.928;7.084;2023-07-02T04:20:54;20.10;76.20
37560;DHT22;23398;50.928;7.084;2023-07-02T04:23:20;20.20;76.10
37560;DHT22;23398;50.928;7.084;2023-07-02T04:25:46;20.20;76.10
37560;DHT22;23398;50.928;7.084;2023-07-02T04:28:11;20.20;75.70
37560;DHT22;23398;50.928;7.084;2023-07-02T04:30:37;20.30;75.60
37560;DHT22;23398;50.928;7.084;2023-07-02T04:33:02;20.30;75.50
37560;DHT22;23398;50.928;7.084;2023-07-02T04:35:28;20.30;75.40
37560;DHT22;23398;50.928;7.084;2023-07-02T04:37:54;20.30;75.20
37560;DHT22;23398;50.928;7.084;2023-07-02T04:40:19;20.40;75.10
37560;DHT22;23398;50.928;7.084;2023-07-02T04:42:46;20.40;75.00
37560;DHT22;23398;50.928;7.084;2023-07-02T04:45:23;20.40;74.90
37560;DHT22;23398;50.928;7.084;2023-07-02T04:47:49;20.50;74.80
37560;DHT22;23398;50.928;7.084;2023-07-02T04:50:15;20.50;74.90
37560;DHT22;23398;50.928;7.084;2023-07-02T04:52:40;20.50;74.60
37560;DHT22;23398;50.928;7.084;2023-07-02T04:55:07;20.50;74.30
37560;DHT22;23398;50.928;7.084;2023-07-02T04:57:32;20.60;74.70
37560;DHT22;23398;50.928;7.084;2023-07-02T04:59:58;20.00;73.90
37560;DHT22;23398;50.928;7.084;2023-07-02T05:02:24;20.70;74.40
37560;DHT22;23398;50.928;7.084;2023-07-02T05:04:49;20.70;74.30
37560;DHT22;23398;50.928;7.084;2023-07-02T05:07:18;20.80;74.30
37560;DHT22;23398;50.928;7.084;2023-07-02T05:09:43;20.90;74.10
37560;DHT22;23398;50.928;7.084;2023-07-02T05:12:09;20.90;73.80
37560;DHT22;23398;50.928;7.084;2023-07-02T05:14:35;21.00;73.70
37560;DHT22;23398;50.928;7.084;2023-07-02T05:17:01;21.00;73.50
37560;DHT22;23398;50.928;7.084;2023-07-02T05:19:26;21.10;73.40
37560;DHT22;23398;50.928;7.084;2023-07-02T05:21:52;21.20;73.40
37560;DHT22;23398;50.928;7.084;2023-07-02T05:24:18;21.20;73.30
37560;DHT22;23398;50.928;7.084;2023-07-02T05:26:43;21.30;73.20
37560;DHT22;23398;50.928;7.084;2023-07-02T05:29:10;21.30;72.80
37560;DHT22;23398;50.928;7.084;2023-07-02T05:31:35;21.40;72.50
37560;DHT22;23398;50.928;7.084;2023-07-02T05:34:01;21.50;72.40
37560;DHT22;23398;50.928;7.084;2023-07-02T05:36:26;21.50;73.20
37560;DHT22;23398;50.928;7.084;2023-07-02T05:38:52;21.50;72.30
37560;DHT22;23398;50.928;7.084;2023-07-02T05:41:19;21.60;72.20
37560;DHT22;23398;50.928;7.084;2023-07-02T05:43:45;21.60;72.20
37560;DHT22;23398;50.928;7.084;2023-07-02T05:46:10;21.70;72.00
37560;DHT22;23398;50.928;7.084;2023-07-02T05:48:37;21.80;71.80
37560;DHT22;23398;50.928;7.084;2023-07-02T05:51:03;21.80;71.60
37560;DHT22;23398;50.928;7.084;2023-07-02T05:53:28;22.00;71.90
37560;DHT22;23398;50.928;7.084;2023-07-02T05:55:54;22.00;71.60
37560;DHT22;23398;50.928;7.084;2023-07-02T05:58:20;22.10;71.50
37560;DHT22;23398;50.928;7.084;2023-07-02T06:00:45;22.20;71.10
37560;DHT22;23398;50.928;7.084;2023-07-02T06:03:15;22.40;71.10
37560;DHT22;23398;50.928;7.084;2023-07-02T06:05:47;22.50;71.20
37560;DHT22;23398;50.928;7.084;2023-07-02T06:08:15;22.70;70.60
37560;DHT22;23398;50.928;7.084;2023-07-02T06:10:42;22.80;70.20
37560;DHT22;23398;50.928;7.084;2023-07-02T06:13:07;23.00;69.80
37560;DHT22;23398;50.928;7.084;2023-07-02T06:15:33;23.20;69.40
37560;DHT22;23398;50.928;7.084;2023-07-02T06:17:58;23.30;69.00
37560;DHT22;23398;50.928;7.084;2023-07-02T06:20:24;23.40;68.60
37560;DHT22;23398;50.928;7.084;2023-07-02T06:22:49;23.60;67.90
37560;DHT22;23398;50.928;7.084;2023-07-02T06:25:15;23.70;67.60
37560;DHT22;23398;50.928;7.084;2023-07-02T06:27:40;23.90;67.10
37560;DHT22;23398;50.928;7.084;2023-07-02T06:30:07;23.90;66.70
37560;DHT22;23398;50.928;7.084;2023-07-02T06:32:32;24.00;66.30
37560;DHT22;23398;50.928;7.084;2023-07-02T06:34:58;24.10;65.60
37560;DHT22;23398;50.928;7.084;2023-07-02T06:37:23;24.30;65.40
37560;DHT22;23398;50.928;7.084;2023-07-02T06:39:49;24.40;65.10
37560;DHT22;23398;50.928;7.084;2023-07-02T06:42:15;24.40;65.00
37560;DHT22;23398;50.928;7.084;2023-07-02T06:44:41;24.50;64.70
37560;DHT22;23398;50.928;7.084;2023-07-02T06:47:07;24.70;64.90
37560;DHT22;23398;50.928;7.084;2023-07-02T06:49:32;24.70;64.30
37560;DHT22;23398;50.928;7.084;2023-07-02T06:51:58;24.80;64.20
37560;DHT22;23398;50.928;7.084;2023-07-02T06:54:25;24.90;63.70
37560;DHT22;23398;50.928;7.084;2023-07-02T06:56:51;25.00;63.60
37560;DHT22;23398;50.928;7.084;2023-07-02T06:59:20;25.10;63.40
37560;DHT22;23398;50.928;7.084;2023-07-02T07:01:46;25.30;62.70
37560;DHT22;23398;50.928;7.084;2023-07-02T07:04:12;25.40;62.30
37560;DHT22;23398;50.928;7.084;2023-07-02T07:06:37;25.60;61.90
37560;DHT22;23398;50.928;7.084;2023-07-02T07:09:03;25.70;61.30
37560;DHT22;23398;50.928;7.084;2023-07-02T07:11:29;25.80;60.80
37560;DHT22;23398;50.928;7.084;2023-07-02T07:13:54;26.00;60.40
37560;DHT22;23398;50.928;7.084;2023-07-02T07:16:20;26.10;59.90
37560;DHT22;23398;50.928;7.084;2023-07-02T07:18:45;26.30;59.50
37560;DHT22;23398;50.928;7.084;2023-07-02T07:21:11;26.40;59.40
37560;DHT22;23398;50.928;7.084;2023-07-02T07:23:36;26.60;59.40
37560;DHT22;23398;50.928;7.084;2023-07-02T07:26:02;26.90;59.40
37560;DHT22;23398;50.928;7.084;2023-07-02T07:28:28;27.20;58.70
37560;DHT22;23398;50.928;7.084;2023-07-02T07:30:53;27.60;57.90
37560;DHT22;23398;50.928;7.084;2023-07-02T07:33:19;28.10;57.60
37560;DHT22;23398;50.928;7.084;2023-07-02T07:35:44;28.60;57.00
37560;DHT22;23398;50.928;7.084;2023-07-02T07:38:12;29.20;55.80
37560;DHT22;23398;50.928;7.084;2023-07-02T07:40:38;29.80;55.00
37560;DHT22;23398;50.928;7.084;2023-07-02T07:43:03;30.20;53.30
37560;DHT22;23398;50.928;7.084;2023-07-02T07:45:29;30.60;52.30
37560;DHT22;23398;50.928;7.084;2023-07-02T07:47:54;30.90;51.60
37560;DHT22;23398;50.928;7.084;2023-07-02T07:50:20;31.20;50.20
37560;DHT22;23398;50.928;7.084;2023-07-02T07:52:45;31.50;50.00
37560;DHT22;23398;50.928;7.084;2023-07-02T07:55:11;31.70;48.90
37560;DHT22;23398;50.928;7.084;2023-07-02T07:57:37;32.00;48.10
37560;DHT22;23398;50.928;7.084;2023-07-02T08:00:04;32.30;47.20
37560;DHT22;23398;50.928;7.084;2023-07-02T08:02:30;32.50;46.80
37560;DHT22;23398;50.928;7.084;2023-07-02T08:04:56;32.70;45.90
37560;DHT22;23398;50.928;7.084;2023-07-02T08:07:21;32.70;45.40
37560;DHT22;23398;50.928;7.084;2023-07-02T08:09:48;32.60;45.40
37560;DHT22;23398;50.928;7.084;2023-07-02T08:12:13;32.50;44.90
37560;DHT22;23398;50.928;7.084;2023-07-02T08:14:39;32.50;45.30
37560;DHT22;23398;50.928;7.084;2023-07-02T08:17:04;32.50;44.60
37560;DHT22;23398;50.928;7.084;2023-07-02T08:19:30;32.40;44.60
37560;DHT22;23398;50.928;7.084;2023-07-02T08:21:55;32.40;44.10
37560;DHT22;23398;50.928;7.084;2023-07-02T08:24:21;32.40;44.50
37560;DHT22;23398;50.928;7.084;2023-07-02T08:26:46;32.50;45.00
37560;DHT22;23398;50.928;7.084;2023-07-02T08:29:14;32.80;45.80
37560;DHT22;23398;50.928;7.084;2023-07-02T08:31:40;33.30;44.60
37560;DHT22;23398;50.928;7.084;2023-07-02T08:34:06;33.70;43.10
37560;DHT22;23398;50.928;7.084;2023-07-02T08:36:32;34.00;42.40
37560;DHT22;23398;50.928;7.084;2023-07-02T08:38:57;34.00;41.40
37560;DHT22;23398;50.928;7.084;2023-07-02T08:41:23;33.90;41.20
37560;DHT22;23398;50.928;7.084;2023-07-02T08:43:49;33.60;41.30
37560;DHT22;23398;50.928;7.084;2023-07-02T08:46:17;33.30;40.80
37560;DHT22;23398;50.928;7.084;2023-07-02T08:48:42;32.90;40.90
37560;DHT22;23398;50.928;7.084;2023-07-02T08:51:08;32.50;41.20
37560;DHT22;23398;50.928;7.084;2023-07-02T08:53:34;32.10;41.90
37560;DHT22;23398;50.928;7.084;2023-07-02T08:56:00;31.80;42.20
37560;DHT22;23398;50.928;7.084;2023-07-02T08:58:26;31.50;42.50
37560;DHT22;23398;50.928;7.084;2023-07-02T09:01:12;31.30;43.40
37560;DHT22;23398;50.928;7.084;2023-07-02T09:03:38;31.00;44.30
37560;DHT22;23398;50.928;7.084;2023-07-02T09:06:08;30.90;44.40
37560;DHT22;23398;50.928;7.084;2023-07-02T09:08:35;30.90;44.20
37560;DHT22;23398;50.928;7.084;2023-07-02T09:11:14;30.80;44.00
37560;DHT22;23398;50.928;7.084;2023-07-02T09:16:22;30.60;44.80
37560;DHT22;23398;50.928;7.084;2023-07-02T09:19:04;30.50;45.30
37560;DHT22;23398;50.928;7.084;2023-07-02T09:21:49;30.50;45.80
37560;DHT22;23398;50.928;7.084;2023-07-02T09:24:19;30.60;45.50
37560;DHT22;23398;50.928;7.084;2023-07-02T09:26:47;30.70;44.80
37560;DHT22;23398;50.928;7.084;2023-07-02T09:29:26;30.80;44.60
37560;DHT22;23398;50.928;7.084;2023-07-02T09:32:05;30.80;44.80
37560;DHT22;23398;50.928;7.084;2023-07-02T09:34:35;30.80;44.50
37560;DHT22;23398;50.928;7.084;2023-07-02T09:37:01;30.80;44.90
37560;DHT22;23398;50.928;7.084;2023-07-02T09:39:29;30.80;44.10
37560;DHT22;23398;50.928;7.084;2023-07-02T09:41:58;30.80;44.30
37560;DHT22;23398;50.928;7.084;2023-07-02T09:44:31;30.70;44.80
37560;DHT22;23398;50.928;7.084;2023-07-02T09:47:08;30.30;44.30
37560;DHT22;23398;50.928;7.084;2023-07-02T09:49:57;30.70;44.70
37560;DHT22;23398;50.928;7.084;2023-07-02T09:52:21;30.70;44.90
37560;DHT22;23398;50.928;7.084;2023-07-02T09:54:47;30.80;44.70
37560;DHT22;23398;50.928;7.084;2023-07-02T09:57:13;30.70;44.20
37560;DHT22;23398;50.928;7.084;2023-07-02T09:59:39;30.70;44.10
37560;DHT22;23398;50.928;7.084;2023-07-02T10:02:05;30.60;45.00
37560;DHT22;23398;50.928;7.084;2023-07-02T10:04:46;30.60;44.90
37560;DHT22;23398;50.928;7.084;2023-07-02T10:07:13;30.70;45.50
37560;DHT22;23398;50.928;7.084;2023-07-02T10:09:50;30.60;46.10
37560;DHT22;23398;50.928;7.084;2023-07-02T10:12:20;30.70;46.30
37560;DHT22;23398;50.928;7.084;2023-07-02T10:14:47;31.00;45.60
37560;DHT22;23398;50.928;7.084;2023-07-02T10:19:54;31.70;45.20
37560;DHT22;23398;50.928;7.084;2023-07-02T10:22:21;32.20;44.40
37560;DHT22;23398;50.928;7.084;2023-07-02T10:24:55;32.80;44.40
37560;DHT22;23398;50.928;7.084;2023-07-02T10:27:36;33.40;42.90
37560;DHT22;23398;50.928;7.084;2023-07-02T10:30:03;33.90;42.40
37560;DHT22;23398;50.928;7.084;2023-07-02T10:32:29;34.40;41.10
37560;DHT22;23398;50.928;7.084;2023-07-02T10:34:56;34.70;40.10
37560;DHT22;23398;50.928;7.084;2023-07-02T10:37:24;34.90;39.30
37560;DHT22;23398;50.928;7.084;2023-07-02T10:39:50;34.90;38.90
37560;DHT22;23398;50.928;7.084;2023-07-02T10:42:17;34.80;38.60
37560;DHT22;23398;50.928;7.084;2023-07-02T10:44:52;34.70;38.60
37560;DHT22;23398;50.928;7.084;2023-07-02T10:47:19;34.40;38.80
37560;DHT22;23398;50.928;7.084;2023-07-02T10:49:45;34.10;38.40
37560;DHT22;23398;50.928;7.084;2023-07-02T10:52:10;33.80;38.30
37560;DHT22;23398;50.928;7.084;2023-07-02T10:54:43;33.60;38.60
37560;DHT22;23398;50.928;7.084;2023-07-02T10:57:10;33.20;39.40
37560;DHT22;23398;50.928;7.084;2023-07-02T10:59:37;33.00;39.20
37560;DHT22;23398;50.928;7.084;2023-07-02T11:02:02;32.70;39.30
37560;DHT22;23398;50.928;7.084;2023-07-02T11:04:32;32.50;39.50
37560;DHT22;23398;50.928;7.084;2023-07-02T11:06:57;32.20;39.70
37560;DHT22;23398;50.928;7.084;2023-07-02T11:09:23;31.90;39.70
37560;DHT22;23398;50.928;7.084;2023-07-02T11:11:59;31.60;40.00
37560;DHT22;23398;50.928;7.084;2023-07-02T11:14:35;31.30;40.40
37560;DHT22;23398;50.928;7.084;2023-07-02T11:17:06;30.90;41.00
37560;DHT22;23398;50.928;7.084;2023-07-02T11:19:33;30.70;41.20
37560;DHT22;23398;50.928;7.084;2023-07-02T11:21:59;30.40;41.50
37560;DHT22;23398;50.928;7.084;2023-07-02T11:24:36;30.20;41.70
37560;DHT22;23398;50.928;7.084;2023-07-02T11:27:03;30.00;42.20
37560;DHT22;23398;50.928;7.084;2023-07-02T11:29:33;29.90;42.80
37560;DHT22;23398;50.928;7.084;2023-07-02T11:32:10;29.70;43.40
37560;DHT22;23398;50.928;7.084;2023-07-02T11:34:37;29.60;44.00
37560;DHT22;23398;50.928;7.084;2023-07-02T11:37:04;29.50;43.40
37560;DHT22;23398;50.928;7.084;2023-07-02T11:39:30;29.40;43.10
37560;DHT22;23398;50.928;7.084;2023-07-02T11:41:56;29.40;43.00
37560;DHT22;23398;50.928;7.084;2023-07-02T11:44:21;29.40;43.10
37560;DHT22;23398;50.928;7.084;2023-07-02T11:46:47;29.40;43.50
37560;DHT22;23398;50.928;7.084;2023-07-02T11:49:13;29.50;43.80
37560;DHT22;23398;50.928;7.084;2023-07-02T11:51:40;29.60;43.90
37560;DHT22;23398;50.928;7.084;2023-07-02T11:54:06;29.60;44.00
37560;DHT22;23398;50.928;7.084;2023-07-02T11:56:33;29.70;43.80
37560;DHT22;23398;50.928;7.084;2023-07-02T11:58:59;29.70;43.30
37560;DHT22;23398;50.928;7.084;2023-07-02T12:01:25;29.70;43.10
37560;DHT22;23398;50.928;7.084;2023-07-02T12:03:50;29.80;43.00
37560;DHT22;23398;50.928;7.084;2023-07-02T12:06:16;29.60;43.50
37560;DHT22;23398;50.928;7.084;2023-07-02T12:08:42;29.50;43.60
37560;DHT22;23398;50.928;7.084;2023-07-02T12:11:07;29.40;44.10
37560;DHT22;23398;50.928;7.084;2023-07-02T12:13:33;29.30;44.20
37560;DHT22;23398;50.928;7.084;2023-07-02T12:15:59;29.20;44.20
37560;DHT22;23398;50.928;7.084;2023-07-02T12:18:24;29.20;43.60
37560;DHT22;23398;50.928;7.084;2023-07-02T12:20:50;29.20;43.60
37560;DHT22;23398;50.928;7.084;2023-07-02T12:23:15;29.00;43.70
37560;DHT22;23398;50.928;7.084;2023-07-02T12:25:41;28.90;43.60
37560;DHT22;23398;50.928;7.084;2023-07-02T12:28:07;28.90;43.50
37560;DHT22;23398;50.928;7.084;2023-07-02T12:30:32;28.90;43.10
37560;DHT22;23398;50.928;7.084;2023-07-02T12:32:58;28.80;43.20
37560;DHT22;23398;50.928;7.084;2023-07-02T12:35:23;28.70;43.90
37560;DHT22;23398;50.928;7.084;2023-07-02T12:37:52;28.70;43.50
37560;DHT22;23398;50.928;7.084;2023-07-02T12:40:19;28.70;43.20
37560;DHT22;23398;50.928;7.084;2023-07-02T12:42:45;28.70;43.30
37560;DHT22;23398;50.928;7.084;2023-07-02T12:45:12;28.80;42.90
37560;DHT22;23398;50.928;7.084;2023-07-02T12:47:38;28.80;42.40
37560;DHT22;23398;50.928;7.084;2023-07-02T12:50:05;28.90;42.00
37560;DHT22;23398;50.928;7.084;2023-07-02T12:52:31;28.90;41.80
37560;DHT22;23398;50.928;7.084;2023-07-02T12:54:57;29.00;42.20
37560;DHT22;23398;50.928;7.084;2023-07-02T12:57:23;29.00;41.70
37560;DHT22;23398;50.928;7.084;2023-07-02T12:59:48;29.10;41.60
37560;DHT22;23398;50.928;7.084;2023-07-02T13:02:14;29.20;41.80
37560;DHT22;23398;50.928;7.084;2023-07-02T13:04:39;29.20;40.80
37560;DHT22;23398;50.928;7.084;2023-07-02T13:07:05;29.30;40.60
37560;DHT22;23398;50.928;7.084;2023-07-02T13:09:31;29.30;40.40
37560;DHT22;23398;50.928;7.084;2023-07-02T13:11:57;29.30;40.30
37560;DHT22;23398;50.928;7.084;2023-07-02T13:14:22;29.20;40.50
37560;DHT22;23398;50.928;7.084;2023-07-02T13:16:48;29.30;40.60
37560;DHT22;23398;50.928;7.084;2023-07-02T13:19:13;29.30;40.60
37560;DHT22;23398;50.928;7.084;2023-07-02T13:21:40;29.30;40.50
37560;DHT22;23398;50.928;7.084;2023-07-02T13:24:06;29.30;41.30
37560;DHT22;23398;50.928;7.084;2023-07-02T13:26:31;29.20;40.80
37560;DHT22;23398;50.928;7.084;2023-07-02T13:28:57;29.20;41.00
37560;DHT22;23398;50.928;7.084;2023-07-02T13:31:23;29.20;41.60
37560;DHT22;23398;50.928;7.084;2023-07-02T13:33:49;29.20;42.90
37560;DHT22;23398;50.928;7.084;2023-07-02T13:36:16;29.10;42.20
37560;DHT22;23398;50.928;7.084;2023-07-02T13:38:41;29.20;42.20
37560;DHT22;23398;50.928;7.084;2023-07-02T13:41:07;29.20;42.00
37560;DHT22;23398;50.928;7.084;2023-07-02T13:43:33;29.20;41.60
37560;DHT22;23398;50.928;7.084;2023-07-02T13:45:59;29.20;42.00
37560;DHT22;23398;50.928;7.084;2023-07-02T13:48:25;29.10;42.00
37560;DHT22;23398;50.928;7.084;2023-07-02T13:50:50;29.10;42.10
37560;DHT22;23398;50.928;7.084;2023-07-02T13:53:16;29.10;42.90
37560;DHT22;23398;50.928;7.084;2023-07-02T13:55:41;29.10;42.90
37560;DHT22;23398;50.928;7.084;2023-07-02T13:58:07;29.10;42.60
37560;DHT22;23398;50.928;7.084;2023-07-02T14:00:33;29.10;42.40
37560;DHT22;23398;50.928;7.084;2023-07-02T14:02:58;29.10;42.70
37560;DHT22;23398;50.928;7.084;2023-07-02T14:05:24;29.00;42.40
37560;DHT22;23398;50.928;7.084;2023-07-02T14:07:50;29.00;42.20
37560;DHT22;23398;50.928;7.084;2023-07-02T14:10:15;29.00;42.80
37560;DHT22;23398;50.928;7.084;2023-07-02T14:12:41;29.00;43.10
37560;DHT22;23398;50.928;7.084;2023-07-02T14:15:08;29.00;42.30
37560;DHT22;23398;50.928;7.084;2023-07-02T14:17:35;28.80;41.80
37560;DHT22;23398;50.928;7.084;2023-07-02T14:20:01;28.70;42.00
37560;DHT22;23398;50.928;7.084;2023-07-02T14:22:27;28.60;42.20
37560;DHT22;23398;50.928;7.084;2023-07-02T14:24:52;28.50;42.20
37560;DHT22;23398;50.928;7.084;2023-07-02T14:27:18;28.40;43.20
37560;DHT22;23398;50.928;7.084;2023-07-02T14:29:43;28.30;43.10
37560;DHT22;23398;50.928;7.084;2023-07-02T14:32:09;28.30;42.80
37560;DHT22;23398;50.928;7.084;2023-07-02T14:34:35;28.30;42.70
37560;DHT22;23398;50.928;7.084;2023-07-02T14:37:02;28.30;43.20
37560;DHT22;23398;50.928;7.084;2023-07-02T14:39:28;28.20;43.50
37560;DHT22;23398;50.928;7.084;2023-07-02T14:41:53;28.20;43.40
37560;DHT22;23398;50.928;7.084;2023-07-02T14:44:19;28.30;42.80
37560;DHT22;23398;50.928;7.084;2023-07-02T14:46:44;28.30;42.70
37560;DHT22;23398;50.928;7.084;2023-07-02T14:49:10;28.40;42.50
37560;DHT22;23398;50.928;7.084;2023-07-02T14:51:35;28.40;42.50
37560;DHT22;23398;50.928;7.084;2023-07-02T14:54:01;28.40;42.80
37560;DHT22;23398;50.928;7.084;2023-07-02T14:56:29;28.40;42.40
37560;DHT22;23398;50.928;7.084;2023-07-02T14:58:55;28.40;43.10
37560;DHT22;23398;50.928;7.084;2023-07-02T15:01:21;28.50;42.90
37560;DHT22;23398;50.928;7.084;2023-07-02T15:03:46;28.40;42.80
37560;DHT22;23398;50.928;7.084;2023-07-02T15:06:14;28.40;42.90
37560;DHT22;23398;50.928;7.084;2023-07-02T15:08:40;28.40;43.40
37560;DHT22;23398;50.928;7.084;2023-07-02T15:11:07;28.40;44.00
37560;DHT22;23398;50.928;7.084;2023-07-02T15:13:33;28.50;43.60
37560;DHT22;23398;50.928;7.084;2023-07-02T15:15:58;28.50;43.50
37560;DHT22;23398;50.928;7.084;2023-07-02T15:18:26;28.50;43.20
37560;DHT22;23398;50.928;7.084;2023-07-02T15:20:52;28.50;43.20
37560;DHT22;23398;50.928;7.084;2023-07-02T15:23:22;28.50;42.40
37560;DHT22;23398;50.928;7.084;2023-07-02T15:25:52;28.40;43.00
37560;DHT22;23398;50.928;7.084;2023-07-02T15:28:19;28.40;43.00
37560;DHT22;23398;50.928;7.084;2023-07-02T15:30:46;28.50;43.00
37560;DHT22;23398;50.928;7.084;2023-07-02T15:33:13;28.50;43.20